Time;durP1;ratioP1;P1;durP2;ratioP2;P2;SDS_P1;SDS_P2;PMS_P1;PMS_P2;Temp;Humidity;BMP_temperature;BMP_pressure;BME280_temperature;BME280_humidity;BME280_pressure;Samples;Min_cycle;Max_cycle;Signal;HPM_P1;HPM_P2
2023/08/21 00:01:38;;;;;;;4.25;0.73;;;;;;;18.01;62.94;100824.06;5013028;28;20038;-60
2023/08/21 00:04:05;;;;;;;5.00;0.80;;;;;;;17.96;62.38;100825.03;5014726;28;20132;-62
2023/08/21 00:06:33;;;;;;;4.22;0.70;;;;;;;17.91;63.02;100826.91;5015666;28;20121;-62
2023/08/21 00:09:01;;;;;;;2.88;1.00;;;;;;;17.89;63.39;100826.06;5013360;28;20145;-62
2023/08/21 00:11:28;;;;;;;3.25;0.60;;;;;;;17.83;63.17;100821.81;5013961;28;20045;-60
2023/08/21 00:13:55;;;;;;;3.85;1.40;;;;;;;17.81;63.59;100817.50;5017059;28;20049;-62
2023/08/21 00:16:23;;;;;;;3.42;1.95;;;;;;;17.77;63.97;100813.22;5011676;28;20654;-61
2023/08/21 00:18:49;;;;;;;4.20;0.98;;;;;;;17.73;63.76;100817.63;5013070;28;20096;-63
2023/08/21 00:21:16;;;;;;;3.78;0.80;;;;;;;17.68;63.65;100809.88;5017211;28;20048;-61
2023/08/21 00:23:44;;;;;;;2.15;0.60;;;;;;;17.65;63.84;100809.94;5014852;28;20041;-64
2023/08/21 00:26:12;;;;;;;4.35;1.25;;;;;;;17.63;63.62;100816.13;5012683;28;20052;-62
2023/08/21 00:28:40;;;;;;;1.65;0.75;;;;;;;17.60;63.42;100814.44;5012907;28;20414;-61
2023/08/21 00:31:09;;;;;;;3.22;1.33;;;;;;;17.55;63.82;100822.38;5013527;28;20760;-63
2023/08/21 00:33:37;;;;;;;3.72;0.98;;;;;;;17.53;64.39;100820.69;5014058;28;20112;-61
2023/08/21 00:36:05;;;;;;;2.92;0.80;;;;;;;17.50;63.82;100823.34;5010075;28;20572;-64
2023/08/21 00:38:34;;;;;;;3.08;1.17;;;;;;;17.46;64.23;100823.41;5019315;28;20051;-61
2023/08/21 00:41:03;;;;;;;2.25;0.65;;;;;;;17.42;63.79;100832.22;5019828;28;20092;-63
2023/08/21 00:43:32;;;;;;;3.85;0.90;;;;;;;17.41;64.65;100825.25;5013812;28;20140;-62
2023/08/21 00:46:01;;;;;;;3.05;1.13;;;;;;;17.36;64.50;100827.06;5018944;28;20120;-60
2023/08/21 00:48:30;;;;;;;2.08;0.98;;;;;;;17.33;64.93;100827.16;5020671;28;20057;-60
2023/08/21 00:50:59;;;;;;;5.45;0.93;;;;;;;17.29;64.75;100830.72;5013805;28;20045;-60
2023/08/21 00:53:27;;;;;;;2.40;1.00;;;;;;;17.27;65.25;100822.03;5018121;28;20068;-61
2023/08/21 00:55:56;;;;;;;3.40;0.80;;;;;;;17.24;65.05;100827.31;5022432;28;20048;-64
2023/08/21 00:58:26;;;;;;;2.50;0.98;;;;;;;17.20;64.90;100824.72;5019637;28;20061;-62
2023/08/21 01:00:55;;;;;;;3.38;1.33;;;;;;;17.17;65.56;100827.44;5019890;28;20037;-62
2023/08/21 01:03:22;;;;;;;4.47;2.25;;;;;;;17.14;65.22;100824.88;5017632;28;20705;-60
2023/08/21 01:05:49;;;;;;;6.18;1.20;;;;;;;17.12;65.52;100829.25;5007078;28;20042;-62
2023/08/21 01:08:29;;;;;;;2.28;0.70;;;;;;;17.06;65.04;100835.44;5018246;28;20058;-62
2023/08/21 01:11:06;;;;;;;4.82;1.00;;;;;;;17.06;65.06;100834.59;5021396;28;20045;-63
2023/08/21 01:13:48;;;;;;;;;;;;;;;16.83;65.58;100838.44;5016377;28;20049;-62
2023/08/21 01:16:16;;;;;;;4.72;2.13;;;;;;;16.97;65.81;100835.59;5018496;28;20615;-63
2023/08/21 01:18:44;;;;;;;4.55;0.85;;;;;;;16.98;65.13;100846.94;5021205;28;20057;-62
2023/08/21 01:21:12;;;;;;;4.47;0.93;;;;;;;16.95;65.14;100840.84;5015786;28;20042;-60
2023/08/21 01:23:41;;;;;;;2.35;0.93;;;;;;;16.91;65.34;100847.03;5025962;28;20057;-63
2023/08/21 01:26:08;;;;;;;4.53;1.27;;;;;;;16.89;65.50;100845.31;5013981;28;20079;-59
2023/08/21 01:28:35;;;;;;;6.32;1.20;;;;;;;16.85;66.18;100841.88;5011569;28;20457;-61
2023/08/21 01:31:26;;;;;;;2.00;1.08;;;;;;;16.77;66.57;100844.63;5021249;28;20038;-60
2023/08/21 01:33:58;;;;;;;3.25;1.00;;;;;;;16.82;65.67;100848.03;5012732;28;20041;-61
2023/08/21 01:36:25;;;;;;;4.97;0.77;;;;;;;16.80;65.90;100841.09;5018972;28;20513;-62
2023/08/21 01:38:53;;;;;;;2.78;1.20;;;;;;;16.78;65.58;100840.25;5013702;28;20049;-62
2023/08/21 01:41:23;;;;;;;6.47;1.05;;;;;;;16.75;66.27;100842.94;5024154;28;20049;-62
2023/08/21 01:43:50;;;;;;;4.22;0.82;;;;;;;16.72;66.41;100841.19;5024679;28;20049;-60
2023/08/21 01:46:17;;;;;;;5.25;1.38;;;;;;;16.69;66.42;100842.13;5019157;28;20045;-63
2023/08/21 01:48:44;;;;;;;4.28;1.33;;;;;;;16.65;66.53;100829.97;5013539;28;20156;-65
2023/08/21 01:51:10;;;;;;;5.75;1.33;;;;;;;16.62;66.83;100840.47;5021164;28;20710;-60
2023/08/21 01:53:37;;;;;;;3.53;1.10;;;;;;;16.58;66.42;100834.44;5012434;28;20107;-65
2023/08/21 01:56:04;;;;;;;3.08;1.13;;;;;;;16.55;67.06;100839.72;5015013;28;20057;-62
2023/08/21 01:58:30;;;;;;;5.03;1.45;;;;;;;16.53;66.71;100845.88;5011023;28;20533;-61
2023/08/21 02:00:57;;;;;;;5.18;1.45;;;;;;;16.49;66.54;100844.19;5017353;28;20130;-64
2023/08/21 02:03:26;;;;;;;3.67;1.17;;;;;;;16.46;66.33;100842.47;5005262;28;20056;-64
2023/08/21 02:05:57;;;;;;;3.58;1.20;;;;;;;16.44;66.92;100839.00;5017269;28;20059;-62
2023/08/21 02:08:30;;;;;;;4.47;1.63;;;;;;;16.41;66.69;100841.66;5019679;28;20049;-64
2023/08/21 02:10:57;;;;;;;3.10;0.95;;;;;;;16.37;66.46;100840.84;5016468;28;20045;-63
2023/08/21 02:13:23;;;;;;;4.00;1.20;;;;;;;16.36;67.28;100841.75;5015042;28;20041;-64
2023/08/21 02:15:50;;;;;;;7.13;1.05;;;;;;;16.35;67.19;100841.78;5019807;28;20473;-61
2023/08/21 02:18:17;;;;;;;6.28;1.20;;;;;;;16.31;67.10;100836.59;5009428;28;20682;-63
2023/08/21 02:20:43;;;;;;;3.67;1.15;;;;;;;16.29;67.17;100837.50;5022294;28;20049;-63
2023/08/21 02:23:10;;;;;;;4.25;1.13;;;;;;;16.26;67.62;100838.41;5020990;28;20037;-62
2023/08/21 02:25:37;;;;;;;3.42;1.25;;;;;;;16.25;67.55;100835.81;5006966;28;20053;-63
2023/08/21 02:28:04;;;;;;;5.30;1.15;;;;;;;16.24;67.64;100836.69;5009272;28;20163;-60
2023/08/21 02:30:31;;;;;;;5.82;1.10;;;;;;;16.22;67.57;100846.31;5017876;28;20686;-63
2023/08/21 02:32:59;;;;;;;4.65;1.20;;;;;;;16.19;67.36;100837.59;5007861;28;20458;-61
2023/08/21 02:35:26;;;;;;;6.43;1.45;;;;;;;16.17;67.55;100836.78;5013354;28;20046;-61
2023/08/21 02:37:52;;;;;;;3.38;1.13;;;;;;;16.13;67.06;100836.81;5013037;28;20492;-62
2023/08/21 02:40:19;;;;;;;5.68;1.70;;;;;;;16.11;67.43;100834.22;5009104;28;20073;-61
2023/08/21 02:42:45;;;;;;;3.78;2.28;;;;;;;16.09;67.47;100836.00;5014624;28;20064;-62
2023/08/21 02:45:12;;;;;;;3.38;1.20;;;;;;;16.06;67.63;100836.03;5013671;28;20072;-62
2023/08/21 02:47:40;;;;;;;4.28;0.93;;;;;;;16.05;68.00;100847.41;5013489;28;20054;-61
2023/08/21 02:50:09;;;;;;;6.07;1.10;;;;;;;16.03;67.54;100841.31;5017842;28;20391;-62
2023/08/21 02:52:36;;;;;;;3.00;1.02;;;;;;;16.01;68.00;100848.31;5015711;28;20099;-60
2023/08/21 02:55:04;;;;;;;5.40;2.10;;;;;;;15.99;68.16;100844.84;5009279;28;20594;-63
2023/08/21 02:57:31;;;;;;;6.78;1.20;;;;;;;15.98;67.83;100845.75;5016367;28;20064;-63
2023/08/21 02:59:58;;;;;;;6.03;1.67;;;;;;;15.94;68.18;100848.34;5015923;28;20054;-64
2023/08/21 03:02:24;;;;;;;6.15;1.65;;;;;;;15.93;68.53;100849.25;5014848;28;20054;-60
2023/08/21 03:04:51;;;;;;;5.90;1.20;;;;;;;15.91;68.54;100842.31;5020814;28;20058;-59
2023/08/21 03:07:18;;;;;;;5.63;1.17;;;;;;;15.88;67.91;100843.19;5022600;28;20510;-60
2023/08/21 03:09:47;;;;;;;7.45;1.08;;;;;;;15.88;67.95;100845.81;5025902;28;20136;-62
2023/08/21 03:12:13;;;;;;;3.88;1.10;;;;;;;15.85;68.01;100850.22;5023942;28;20049;-61
2023/08/21 03:14:41;;;;;;;6.00;1.15;;;;;;;15.81;68.23;100847.63;5014870;28;20045;-61
2023/08/21 03:17:08;;;;;;;7.20;1.02;;;;;;;15.81;68.00;100852.00;5015629;28;20063;-62
2023/08/21 03:19:35;;;;;;;3.53;1.20;;;;;;;15.78;68.35;100852.03;5018981;28;20053;-60
2023/08/21 03:22:01;;;;;;;6.28;1.65;;;;;;;15.75;68.27;100852.06;5018582;28;20130;-62
2023/08/21 03:24:28;;;;;;;3.97;1.45;;;;;;;15.72;67.70;100852.09;5017220;28;20053;-63
2023/08/21 03:26:55;;;;;;;6.72;1.45;;;;;;;15.70;68.09;100848.66;5019971;28;20506;-63
2023/08/21 03:29:21;;;;;;;6.57;1.30;;;;;;;15.66;68.59;100848.69;5020761;28;20085;-61
2023/08/21 03:31:49;;;;;;;6.65;1.60;;;;;;;15.64;68.31;100845.22;5017709;28;20049;-63
2023/08/21 03:34:16;;;;;;;4.60;1.33;;;;;;;15.61;68.43;100847.88;5020532;28;20050;-62
2023/08/21 03:36:43;;;;;;;11.38;1.83;;;;;;;15.59;68.28;100849.63;5017323;28;20053;-63
2023/08/21 03:39:09;;;;;;;4.47;1.40;;;;;;;15.57;68.40;100842.69;5013818;28;20092;-59
2023/08/21 03:41:36;;;;;;;5.82;1.83;;;;;;;15.55;68.59;100845.31;5021536;28;20061;-59
2023/08/21 03:44:03;;;;;;;4.43;1.40;;;;;;;15.53;68.97;100844.47;5020754;28;20411;-61
2023/08/21 03:46:29;;;;;;;8.80;2.30;;;;;;;15.49;68.53;100847.97;5013959;28;20052;-58
2023/08/21 03:48:56;;;;;;;4.85;1.67;;;;;;;15.47;69.10;100852.38;5016395;28;20054;-60
2023/08/21 03:51:23;;;;;;;6.03;1.92;;;;;;;15.45;69.20;100848.91;5021347;28;20091;-64
2023/08/21 03:53:50;;;;;;;3.85;1.88;;;;;;;15.42;68.91;100840.22;5017522;28;20065;-58
2023/08/21 03:56:16;;;;;;;4.35;1.42;;;;;;;15.40;68.73;100841.97;5016981;28;20060;-58
2023/08/21 03:58:43;;;;;;;6.68;1.60;;;;;;;15.37;69.23;100849.84;5019299;28;20049;-63
2023/08/21 04:01:10;;;;;;;7.72;1.25;;;;;;;15.35;68.94;100843.78;5015155;28;20422;-61
2023/08/21 04:03:36;;;;;;;4.03;1.10;;;;;;;15.33;69.16;100837.69;5022243;28;20045;-65
2023/08/21 04:06:03;;;;;;;4.50;1.42;;;;;;;15.32;69.30;100849.03;5026483;28;20046;-59
2023/08/21 04:08:30;;;;;;;7.25;1.48;;;;;;;15.29;69.13;100838.59;5016630;28;20046;-65
2023/08/21 04:10:59;;;;;;;5.55;1.20;;;;;;;15.28;69.38;100842.09;5024958;28;20134;-60
2023/08/21 04:13:26;;;;;;;;;;;;;;;15.05;69.60;100830.13;5019385;28;20096;-60
2023/08/21 04:15:54;;;;;;;6.38;1.70;;;;;;;15.20;69.11;100829.13;5020491;28;19975;-59
2023/08/21 04:18:21;;;;;;;4.80;1.25;;;;;;;15.20;69.58;100833.50;5018360;28;20060;-62
2023/08/21 04:21:04;;;;;;;5.35;1.40;;;;;;;15.18;69.35;100830.00;5019413;28;20118;-62
2023/08/21 04:23:31;;;;;;;6.03;1.90;;;;;;;15.16;69.21;100833.50;5016457;28;20045;-56
2023/08/21 04:26:02;;;;;;;4.85;1.60;;;;;;;15.16;69.07;100836.13;5021901;28;20666;-56
2023/08/21 04:28:31;;;;;;;3.30;1.02;;;;;;;15.14;69.71;100837.88;5021923;28;20197;-62
2023/08/21 04:30:58;;;;;;;5.38;1.38;;;;;;;15.13;69.83;100832.69;5018992;28;20057;-59
2023/08/21 04:33:28;;;;;;;10.75;1.55;;;;;;;15.12;69.51;100831.81;5015722;28;20099;-62
2023/08/21 04:35:54;;;;;;;5.25;1.30;;;;;;;15.10;69.34;100838.78;5020012;28;20158;-61
2023/08/21 04:38:21;;;;;;;5.50;1.83;;;;;;;15.09;70.08;100839.66;5014682;28;20077;-61
2023/08/21 04:40:48;;;;;;;5.65;1.33;;;;;;;15.08;69.69;100842.28;5013712;28;20080;-63
2023/08/21 04:43:14;;;;;;;4.32;1.63;;;;;;;15.05;69.51;100843.19;5018560;28;20041;-61
2023/08/21 04:45:50;;;;;;;4.05;1.73;;;;;;;15.01;69.86;100844.97;5016053;28;20045;-62
2023/08/21 04:48:17;;;;;;;4.05;1.65;;;;;;;15.02;69.37;100845.81;5014476;28;20531;-61
2023/08/21 04:50:45;;;;;;;5.95;1.50;;;;;;;14.99;69.47;100846.69;5011733;28;20542;-59
2023/08/21 04:53:12;;;;;;;5.15;1.25;;;;;;;14.98;69.96;100847.59;5017703;28;20041;-61
2023/08/21 04:55:40;;;;;;;3.63;1.10;;;;;;;14.99;70.40;100848.44;5011029;28;20127;-61
2023/08/21 04:58:08;;;;;;;4.22;1.38;;;;;;;14.97;69.76;100852.81;5017589;28;20073;-61
2023/08/21 05:00:34;;;;;;;4.85;1.52;;;;;;;14.97;69.90;100852.81;5012459;28;20721;-59
2023/08/21 05:03:01;;;;;;;5.95;1.60;;;;;;;14.96;69.99;100851.09;5019205;28;20042;-62
2023/08/21 05:05:28;;;;;;;7.50;1.30;;;;;;;14.94;69.75;100843.28;5022694;28;20046;-62
2023/08/21 05:07:55;;;;;;;5.32;1.30;;;;;;;14.95;70.23;100844.13;5019867;28;20491;-60
2023/08/21 05:10:21;;;;;;;11.25;1.70;;;;;;;14.94;69.95;100842.41;5016695;28;20045;-62
2023/08/21 05:12:48;;;;;;;6.45;1.30;;;;;;;14.93;69.62;100845.91;5016425;28;20046;-61
2023/08/21 05:15:15;;;;;;;7.78;1.45;;;;;;;14.93;70.43;100851.13;5015555;28;20418;-62
2023/08/21 05:17:42;;;;;;;8.00;1.48;;;;;;;14.94;70.53;100850.22;5016310;28;20049;-59
2023/08/21 05:20:10;;;;;;;7.78;1.13;;;;;;;14.96;70.08;100856.31;5019129;28;20046;-62
2023/08/21 05:22:37;;;;;;;6.05;1.45;;;;;;;14.95;70.20;100860.66;5015818;28;20072;-61
2023/08/21 05:25:05;;;;;;;5.75;1.17;;;;;;;14.97;70.30;100855.44;5011989;28;20068;-60
2023/08/21 05:27:31;;;;;;;9.52;1.48;;;;;;;14.97;70.14;100852.81;5011638;28;20052;-60
2023/08/21 05:29:58;;;;;;;7.70;1.52;;;;;;;14.98;70.37;100857.16;5020284;28;20045;-60
2023/08/21 05:32:24;;;;;;;5.05;1.23;;;;;;;14.98;70.14;100854.53;5015924;28;20053;-61
2023/08/21 05:34:51;;;;;;;7.28;1.70;;;;;;;14.99;70.02;100856.25;5021008;28;20099;-61
2023/08/21 05:37:18;;;;;;;5.68;1.55;;;;;;;15.01;70.11;100854.53;5012681;28;20052;-61
2023/08/21 05:39:44;;;;;;;4.45;1.25;;;;;;;15.01;70.31;100850.19;5017549;28;20050;-62
2023/08/21 05:42:11;;;;;;;6.10;1.17;;;;;;;15.03;70.46;100853.63;5018847;28;20056;-60
2023/08/21 05:44:38;;;;;;;5.57;1.88;;;;;;;15.06;70.84;100852.72;5018831;28;20075;-60
2023/08/21 05:47:05;;;;;;;8.48;1.80;;;;;;;15.08;70.64;100858.81;5016199;28;20061;-59
2023/08/21 05:49:31;;;;;;;8.52;1.80;;;;;;;15.09;70.57;100863.16;5014315;28;20045;-57
2023/08/21 05:51:58;;;;;;;10.70;1.42;;;;;;;15.12;71.00;100868.34;5012718;28;20060;-60
2023/08/21 05:54:26;;;;;;;7.25;1.65;;;;;;;15.16;70.84;100870.03;5014267;28;20045;-59
2023/08/21 05:56:52;;;;;;;4.80;1.50;;;;;;;15.21;71.09;100871.75;5017561;28;20041;-58
2023/08/21 05:59:35;;;;;;;5.68;1.13;;;;;;;15.20;70.85;100870.03;5024384;28;20443;-53
2023/08/21 06:02:01;;;;;;;4.15;1.30;;;;;;;15.29;70.67;100880.38;5012964;28;20060;-55
2023/08/21 06:04:28;;;;;;;5.70;1.50;;;;;;;15.34;71.15;100868.16;5022135;28;20045;-61
2023/08/21 06:06:55;;;;;;;7.78;1.98;;;;;;;15.37;70.75;100881.16;5014039;28;20053;-61
2023/08/21 06:09:22;;;;;;;8.90;1.65;;;;;;;15.44;70.79;100886.34;5011782;28;20122;-61
2023/08/21 06:11:48;;;;;;;10.10;1.35;;;;;;;15.47;70.89;100887.16;5019563;28;20049;-54
2023/08/21 06:14:15;;;;;;;8.93;1.70;;;;;;;15.53;71.23;100888.84;5019607;28;20107;-59
2023/08/21 06:16:43;;;;;;;4.28;1.45;;;;;;;15.59;71.34;100887.91;5021286;28;20045;-61
2023/08/21 06:19:10;;;;;;;7.30;1.30;;;;;;;15.65;71.09;100880.03;5020940;28;20046;-60
2023/08/21 06:21:37;;;;;;;8.77;1.80;;;;;;;15.72;71.28;100880.81;5022018;28;20383;-58
2023/08/21 06:24:03;;;;;;;8.80;1.38;;;;;;;15.78;70.82;100875.53;5007388;28;20732;-60
2023/08/21 06:26:30;;;;;;;5.95;1.45;;;;;;;15.84;71.05;100882.44;5009230;28;20057;-61
2023/08/21 06:28:57;;;;;;;4.60;1.02;;;;;;;15.90;71.08;100882.34;5007974;28;20049;-56
2023/08/21 06:31:24;;;;;;;7.07;1.85;;;;;;;15.94;71.32;100890.16;5021898;28;20049;-61
2023/08/21 06:33:51;;;;;;;9.38;1.88;;;;;;;16.02;70.95;100902.28;5009503;28;20061;-60
2023/08/21 06:36:17;;;;;;;5.13;1.48;;;;;;;16.09;70.92;100897.84;5011044;28;20053;-60
2023/08/21 06:38:44;;;;;;;5.88;1.77;;;;;;;16.18;71.03;100903.84;5006632;28;20108;-61
2023/08/21 06:41:11;;;;;;;7.78;2.17;;;;;;;16.27;71.07;100896.75;5013536;28;20046;-59
2023/08/21 06:43:39;;;;;;;11.57;1.85;;;;;;;16.36;70.77;100901.88;5015240;28;20049;-60
2023/08/21 06:46:10;;;;;;;6.28;1.90;;;;;;;16.56;71.50;100903.34;5009708;28;20049;-60
2023/08/21 06:48:39;;;;;;;8.18;1.80;;;;;;;16.91;70.97;100901.97;5014045;28;20064;-59
2023/08/21 06:51:06;;;;;;;10.13;2.03;;;;;;;17.16;71.03;100904.22;5010885;28;20061;-60
2023/08/21 06:53:33;;;;;;;7.38;1.65;;;;;;;17.23;70.08;100904.13;5019350;28;20061;-59
2023/08/21 06:55:59;;;;;;;6.50;2.22;;;;;;;17.23;70.33;100902.38;5016963;28;20494;-56
2023/08/21 06:58:26;;;;;;;9.40;2.30;;;;;;;17.25;70.42;100907.59;5010641;28;20052;-61
2023/08/21 07:00:55;;;;;;;7.30;2.47;;;;;;;17.26;70.66;100914.53;5009339;28;20052;-60
2023/08/21 07:03:23;;;;;;;11.38;2.95;;;;;;;17.27;70.52;100916.25;5013624;28;20041;-59
2023/08/21 07:05:58;;;;;;;11.00;3.78;;;;;;;17.26;71.22;100909.31;5009189;28;20627;-60
2023/08/21 07:08:25;;;;;;;8.98;2.63;;;;;;;17.27;70.79;100908.41;5016644;28;20045;-58
2023/08/21 07:10:53;;;;;;;8.98;3.30;;;;;;;17.28;71.14;100913.63;5011175;28;20050;-57
2023/08/21 07:13:19;;;;;;;9.93;3.15;;;;;;;17.30;70.42;100916.22;5013029;28;20046;-59
2023/08/21 07:15:47;;;;;;;8.23;2.55;;;;;;;17.35;71.07;100911.75;5018757;28;20042;-60
2023/08/21 07:18:14;;;;;;;8.52;3.13;;;;;;;17.40;70.94;100916.94;5011060;28;20141;-59
2023/08/21 07:20:41;;;;;;;10.68;3.90;;;;;;;17.48;71.10;100915.03;5018491;28;20052;-56
2023/08/21 07:23:07;;;;;;;9.65;2.90;;;;;;;17.57;70.24;100924.47;5007894;28;20053;-60
2023/08/21 07:25:34;;;;;;;9.15;3.78;;;;;;;17.71;70.30;100927.72;5015417;28;20127;-59
2023/08/21 07:28:01;;;;;;;8.13;3.30;;;;;;;17.99;71.33;100916.72;5014195;28;20049;-61
2023/08/21 07:30:28;;;;;;;8.13;2.67;;;;;;;18.54;70.88;100917.38;5016224;28;20498;-61
2023/08/21 07:32:54;;;;;;;10.73;2.40;;;;;;;19.11;70.59;100923.06;5018569;28;20111;-60
2023/08/21 07:35:21;;;;;;;6.50;2.22;;;;;;;19.72;69.36;100917.13;5007781;28;20511;-59
2023/08/21 07:37:48;;;;;;;8.18;2.53;;;;;;;20.23;67.84;100920.13;5008052;28;20076;-60
2023/08/21 07:40:15;;;;;;;7.13;2.55;;;;;;;20.78;66.97;100916.72;5010620;28;20056;-60
2023/08/21 07:42:41;;;;;;;5.65;2.25;;;;;;;21.37;66.38;100910.47;5000109;28;20090;-59
2023/08/21 07:45:08;;;;;;;7.32;2.45;;;;;;;21.89;65.55;100918.31;4997749;28;20089;-60
2023/08/21 07:47:35;;;;;;;7.45;1.80;;;;;;;22.38;65.21;100908.63;4994081;28;20594;-60
2023/08/21 07:50:05;;;;;;;5.57;1.98;;;;;;;22.81;63.57;100912.25;5019195;28;20053;-61
2023/08/21 07:52:31;;;;;;;5.05;1.50;;;;;;;23.17;62.54;100915.22;5011618;28;20050;-60
2023/08/21 07:55:00;;;;;;;7.68;1.60;;;;;;;23.54;60.97;100918.09;5015423;28;20391;-60
2023/08/21 07:57:28;;;;;;;4.40;1.90;;;;;;;23.87;60.13;100909.59;5017500;28;20088;-60
2023/08/21 07:59:55;;;;;;;4.82;1.38;;;;;;;24.15;59.83;100908.38;5010993;28;20099;-60
2023/08/21 08:02:23;;;;;;;6.43;1.70;;;;;;;24.39;58.79;100911.63;5011360;28;20046;-61
2023/08/21 08:04:50;;;;;;;5.07;1.10;;;;;;;24.64;57.65;100915.78;5016141;28;20069;-58
2023/08/21 08:07:16;;;;;;;5.93;1.13;;;;;;;24.87;58.19;100908.53;5009612;28;20115;-61
2023/08/21 08:09:43;;;;;;;4.20;1.13;;;;;;;25.21;57.22;100907.75;5010722;28;20045;-60
2023/08/21 08:12:10;;;;;;;2.65;0.85;;;;;;;25.59;56.94;100915.53;5016322;28;20045;-59
2023/08/21 08:14:38;;;;;;;3.55;1.00;;;;;;;25.64;55.31;100916.16;5015442;28;20204;-60
2023/08/21 08:17:04;;;;;;;1.52;0.98;;;;;;;25.70;55.80;100919.44;5013721;28;20108;-61
2023/08/21 08:19:31;;;;;;;4.22;1.10;;;;;;;25.86;54.47;100904.41;5013921;28;20057;-59
2023/08/21 08:21:58;;;;;;;5.88;0.90;;;;;;;25.65;53.90;100912.59;5010716;28;20667;-61
2023/08/21 08:24:24;;;;;;;7.57;1.38;;;;;;;25.44;54.80;100908.38;5018460;28;20658;-60
2023/08/21 08:26:51;;;;;;;6.50;0.82;;;;;;;25.40;54.38;100905.88;5014443;28;20133;-61
2023/08/21 08:29:18;;;;;;;2.35;0.88;;;;;;;25.21;54.26;100907.75;5014142;28;20524;-59
2023/08/21 08:31:44;;;;;;;3.28;0.95;;;;;;;25.18;54.61;100907.91;5013639;28;20160;-61
2023/08/21 08:34:11;;;;;;;4.50;1.10;;;;;;;25.03;54.30;100905.94;5012534;28;20119;-61
2023/08/21 08:36:38;;;;;;;4.88;1.10;;;;;;;24.92;54.43;100902.13;5011761;28;20182;-60
2023/08/21 08:39:05;;;;;;;2.88;0.77;;;;;;;25.08;53.98;100896.91;5003749;28;20087;-61
2023/08/21 08:41:42;;;;;;;2.42;1.08;;;;;;;25.20;53.62;100900.75;5008424;28;20303;-61
2023/08/21 08:44:12;;;;;;;3.17;0.93;;;;;;;25.68;53.60;100900.94;5005530;28;20042;-61
2023/08/21 08:46:38;;;;;;;;;;;;;;;25.79;53.34;100897.72;5005795;28;20049;-60
2023/08/21 08:49:05;;;;;;;2.63;0.77;;;;;;;25.66;52.99;100903.69;5012253;28;20562;-60
2023/08/21 08:51:35;;;;;;;3.35;1.10;;;;;;;25.67;52.89;100902.72;5010143;28;20501;-60
2023/08/21 08:54:01;;;;;;;3.55;1.33;;;;;;;26.08;52.61;100908.56;5007894;28;20050;-61
2023/08/21 08:56:28;;;;;;;4.93;0.90;;;;;;;26.59;52.20;100901.38;5010229;28;20392;-61
2023/08/21 08:58:55;;;;;;;2.95;0.70;;;;;;;26.81;51.13;100901.00;5006938;28;20518;-60
2023/08/21 09:01:21;;;;;;;3.88;1.02;;;;;;;27.06;50.67;100902.25;5012596;28;20234;-59
2023/08/21 09:03:50;;;;;;;5.95;1.00;;;;;;;27.29;49.25;100894.72;5014052;28;20132;-61
2023/08/21 09:06:17;;;;;;;3.13;1.23;;;;;;;27.63;49.10;100900.69;5005894;28;20057;-61
2023/08/21 09:08:57;;;;;;;2.35;0.82;;;;;;;28.02;48.51;100905.38;5002998;28;20064;-61
2023/08/21 09:11:24;;;;;;;4.20;1.33;;;;;;;28.21;48.06;100907.75;5004805;28;20049;-61
2023/08/21 09:13:52;;;;;;;3.92;1.42;;;;;;;28.32;47.17;100899.09;5004735;28;20049;-61
2023/08/21 09:16:22;;;;;;;3.60;1.50;;;;;;;28.48;47.36;100899.78;5004260;28;20744;-60
2023/08/21 09:18:50;;;;;;;3.83;0.90;;;;;;;28.72;47.97;100900.97;5005925;28;20076;-61
2023/08/21 09:21:19;;;;;;;2.13;0.95;;;;;;;28.94;46.89;100905.72;5004296;28;20064;-61
2023/08/21 09:23:46;;;;;;;3.85;0.73;;;;;;;29.20;46.58;100907.56;5008679;28;20050;-61
2023/08/21 09:26:21;;;;;;;2.47;0.40;;;;;;;29.41;45.89;100902.59;5007338;28;20049;-62
2023/08/21 09:28:49;;;;;;;1.73;0.50;;;;;;;29.58;45.45;100908.59;5007091;28;20119;-61
2023/08/21 09:31:16;;;;;;;1.23;0.60;;;;;;;29.70;44.89;100905.06;5004869;28;20466;-61
2023/08/21 09:33:43;;;;;;;3.47;1.42;;;;;;;29.85;44.95;100902.28;5006637;28;20391;-62
2023/08/21 09:36:10;;;;;;;3.20;0.82;;;;;;;29.99;44.38;100904.78;5007102;28;20391;-62
2023/08/21 09:38:40;;;;;;;2.03;1.80;;;;;;;30.10;44.13;100901.38;5005402;28;20620;-61
2023/08/21 09:41:07;;;;;;;3.38;0.88;;;;;;;30.22;43.51;100902.31;5007070;28;20483;-59
2023/08/21 09:43:41;;;;;;;2.55;0.82;;;;;;;30.23;43.49;100903.16;5004897;28;20486;-59
2023/08/21 09:46:13;;;;;;;2.47;1.23;;;;;;;30.36;44.18;100911.16;5002492;28;20072;-61
2023/08/21 09:48:41;;;;;;;3.55;0.88;;;;;;;30.43;43.83;100911.53;5006357;28;20081;-60
2023/08/21 09:51:08;;;;;;;3.75;2.20;;;;;;;30.43;43.46;100907.06;5004234;28;20959;-60
2023/08/21 09:53:34;;;;;;;4.05;1.10;;;;;;;30.52;43.40;100901.03;5007088;28;20401;-61
2023/08/21 09:56:03;;;;;;;2.10;0.50;;;;;;;30.46;43.08;100898.78;5005845;28;20519;-61
2023/08/21 09:58:29;;;;;;;2.13;0.70;;;;;;;30.40;42.60;100905.44;5002168;28;20049;-61
2023/08/21 10:00:58;;;;;;;2.17;1.13;;;;;;;30.31;42.36;100899.91;5005250;28;20053;-62
2023/08/21 10:03:26;;;;;;;3.78;0.82;;;;;;;30.24;42.66;100895.06;5002466;28;20092;-62
2023/08/21 10:05:58;;;;;;;2.10;1.00;;;;;;;30.17;42.67;100887.56;5003439;28;20136;-61
2023/08/21 10:08:26;;;;;;;3.60;0.63;;;;;;;30.08;42.29;100895.28;5000904;28;20145;-61
2023/08/21 10:10:54;;;;;;;3.33;1.05;;;;;;;30.00;42.82;100893.16;5003325;28;20049;-61
2023/08/21 10:13:21;;;;;;;2.90;1.13;;;;;;;29.98;42.99;100884.41;5002636;28;20627;-60
2023/08/21 10:15:47;;;;;;;2.28;1.13;;;;;;;30.04;42.31;100898.25;5009656;28;20057;-62
2023/08/21 10:18:36;;;;;;;2.45;0.80;;;;;;;30.15;41.76;100890.34;5008002;28;20178;-62
2023/08/21 10:21:14;;;;;;;1.20;0.82;;;;;;;30.26;42.26;100893.09;5003962;28;20068;-63
2023/08/21 10:23:41;;;;;;;2.30;0.88;;;;;;;30.17;41.31;100888.44;5008913;28;20107;-61
2023/08/21 10:26:12;;;;;;;4.50;1.35;;;;;;;30.20;42.72;100888.22;5006652;28;20064;-64
2023/08/21 10:31:39;;;;;;;2.00;0.70;;;;;;;30.26;42.14;100889.59;5037014;27;20407;-62
2023/08/21 10:34:07;;;;;;;;;;;;;;;30.34;42.02;100884.53;5053384;28;20433;-62
2023/08/21 10:39:23;;;;;;;3.28;2.70;;;;;;;30.35;41.66;100880.03;5021451;28;20416;-61
2023/08/21 10:47:16;;;;;;;2.67;0.50;;;;;;;30.46;40.84;100872.06;5061646;27;20418;-63
2023/08/21 10:49:46;;;;;;;3.72;0.88;;;;;;;30.35;40.91;100864.00;5022114;28;20067;-60
2023/08/21 10:52:14;;;;;;;3.70;0.90;;;;;;;30.23;40.67;100861.25;5023394;28;20045;-62
2023/08/21 10:54:47;;;;;;;4.63;1.73;;;;;;;30.20;41.55;100861.50;5028836;28;20469;-63
2023/08/21 10:57:14;;;;;;;2.88;1.30;;;;;;;30.21;41.18;100857.88;5026527;28;20107;-64
2023/08/21 11:02:40;;;;;;;4.55;2.67;;;;;;;30.11;41.35;100841.63;5021763;28;20376;-60
2023/08/21 11:05:08;;;;;;;2.60;2.35;;;;;;;30.12;41.63;100839.81;4960486;28;20150;-62
2023/08/21 11:07:39;;;;;;;3.72;2.03;;;;;;;30.31;42.07;100835.81;4951542;28;20142;-62
2023/08/21 11:10:08;;;;;;;3.50;2.22;;;;;;;30.52;40.80;100836.88;4950229;28;20055;-62
2023/08/21 11:12:38;;;;;;;3.22;2.90;;;;;;;30.68;40.58;100833.03;4953568;28;20056;-62
2023/08/21 11:15:05;;;;;;;2.88;1.90;;;;;;;30.70;40.61;100843.63;4946160;28;20069;-63
2023/08/21 11:17:32;;;;;;;2.72;2.35;;;;;;;30.70;40.88;100836.44;4950137;28;20113;-63
2023/08/21 11:20:03;;;;;;;7.38;2.40;;;;;;;30.76;40.63;100846.72;4953739;28;20063;-62
2023/08/21 11:22:32;;;;;;;5.90;2.10;;;;;;;30.86;40.83;100843.34;4952934;28;20051;-62
2023/08/21 11:24:59;;;;;;;2.55;1.88;;;;;;;30.88;40.00;100838.72;4944168;28;20051;-63
2023/08/21 11:27:26;;;;;;;3.75;2.25;;;;;;;31.00;40.10;100837.75;4945748;28;20047;-62
2023/08/21 11:29:52;;;;;;;1.73;1.60;;;;;;;31.12;40.58;100835.97;4943016;28;20058;-60
2023/08/21 11:32:22;;;;;;;3.15;1.83;;;;;;;31.15;39.52;100845.56;4945743;28;20050;-60
2023/08/21 11:34:51;;;;;;;3.05;2.15;;;;;;;30.99;39.18;100841.41;4963403;28;20201;-62
2023/08/21 11:37:19;;;;;;;;;;;;;;;30.66;39.45;100846.53;4951890;28;20058;-62
2023/08/21 11:39:48;;;;;;;1.83;1.65;;;;;;;30.62;39.95;100842.38;4947640;28;20386;-61
2023/08/21 11:42:15;;;;;;;5.03;3.05;;;;;;;30.62;39.90;100841.50;4954905;28;20058;-61
2023/08/21 11:44:46;;;;;;;2.63;2.20;;;;;;;30.60;39.47;100835.44;4949180;28;20065;-59